Who's Online

We have 1 guest online

GK Weather

An error occured during parsing XML data. Please try again.

Aviation WX

[source: ADDS]
METAR
KIAD 150852Z 00000KT 10SM FEW050 SCT120 SCT250 11/10 A3023 RMK AO2 SLP235 T01060100 55000 =
TAF
KIAD 150846Z 1509/1612 00000KT P6SM BKN040 BKN250 FM151100 00000KT 5SM BR FEW040 SCT250 FM151300 00000KT P6SM FEW040 SCT250 FM160300 17004KT P6SM BKN040 FM161100 31004KT P6SM SCT040 =
SR / SS: 00:34 / 12:59 UTC (Washington-Dulles 2014-09-15)

JoomlaWatch Agent

Home Links
We are regularly out on the Web. When we find a great site we list it.